Flight Track Log - Related Links

Times and Time Zones

All times are in EDT time to prevent confusion due to time zone crossing. See the SWA1725 flight status page for this flight to view local times or setup timezone preferences in your user account.

Time Position Orientation Groundspeed Altitude Reporting Facility
EDT Latitude Longitude Course Direction KTS MPH feet Rate Location/Type
Tue 05:09:51 PM 38.7258 -121.5994 72° East 141 162 1,400  Level Oakland Center
Tue 05:10:52 PM 38.7333 -121.5275 82° East 280 322 4,100 2,705 Climbing Oakland Center
Tue 05:11:53 PM 38.7294 -121.4392 93° East 256 295 6,900 3,148 Climbing Oakland Center
Tue 05:12:54 PM 38.7253 -121.3464 93° East 256 295 10,500 2,537 Climbing Oakland Center
Tue 05:13:56 PM 38.7225 -121.2383 92° East 297 342 12,100 1,967 Climbing Oakland Center
Tue 05:14:56 PM 38.7172 -121.1117 93° East 342 394 14,500 2,459 Climbing Oakland Center
Tue 05:15:00 PM 38.9123 -120.7064 72° East  Level Estimated
Tue 05:15:58 PM 38.7122 -120.9778 93° East 366 421 17,100  Level Oakland Center
Tue 05:16:59 PM 38.7072 -120.8364 93° East 390 449 19,200 2,311 Climbing Oakland Center
Tue 05:18:00 PM 38.7019 -120.6900 93° East 408 470 21,800 2,311 Climbing Oakland Center
Tue 05:19:01 PM 38.6956 -120.5408 93° East 417 480 23,900 2,016 Climbing Oakland Center
Tue 05:20:02 PM 38.6897 -120.3878 93° East 427 491 25,900 1,820 Climbing Oakland Center
Tue 05:21:03 PM 38.6828 -120.2322 93° East 437 503 27,600 1,525 Climbing Oakland Center
Tue 05:22:04 PM 38.6944 -120.0797 84° East 432 497 29,000 1,230 Climbing Oakland Center
Tue 05:23:05 PM 38.7089 -119.9219 83° East 444 511 30,100 1,574 Climbing Oakland Center
Tue 05:24:06 PM 38.6956 -119.7322 95° East 464 534 32,200 1,805 Climbing Oakland Center
Tue 05:25:08 PM 38.6831 -119.5708 96° East 459 528 33,800 1,463 Climbing Oakland Center
Tue 05:26:09 PM 38.6714 -119.4133 95° East 450 518 35,200 1,230 Climbing Oakland Center
Tue 05:27:10 PM 38.6619 -119.2558 94° East 448 516 36,300 836 Climbing Oakland Center
Tue 05:28:11 PM 38.6503 -119.0989 95° East 446 513 36,900 344 Climbing Oakland Center
Tue 05:29:12 PM 38.6381 -118.9372 95° East 454 522 37,000 49 Climbing Oakland Center
Tue 05:30:13 PM 38.6258 -118.7769 96° East 457 526 37,000  Level Oakland Center
Tue 05:31:14 PM 38.6122 -118.6175 96° East 455 524 37,000  Level Oakland Center
Tue 05:32:15 PM 38.6008 -118.4578 95° East 455 524 37,000  Level Oakland Center
Tue 05:33:17 PM 38.5850 -118.2631 96° East 461 531 37,000  Level Oakland Center
Tue 05:34:18 PM 38.5714 -118.1008 96° East 461 531 37,000  Level Oakland Center
Tue 05:35:19 PM 38.5794 -117.9392 86° East 442 509 37,000  Level Oakland Center
Tue 05:36:20 PM 38.6036 -117.7908 78° East 426 490 37,000  Level Oakland Center
Tue 05:37:21 PM 38.6258 -117.6400 79° East 429 494 37,000  Level Oakland Center
Tue 05:38:22 PM 38.6497 -117.4881 79° East 432 497 37,000  Level Oakland Center
Tue 05:39:23 PM 38.6733 -117.3358 79° East 434 499 37,000  Level Oakland Center
Tue 05:40:24 PM 38.6961 -117.1864 79° East 427 491 37,000  Level Oakland Center
Tue 05:41:26 PM 38.7181 -117.0369 79° East 426 490 37,000  Level Oakland Center
Tue 05:42:27 PM 38.7414 -116.8858 79° East 430 495 37,000  Level Oakland Center
Tue 05:43:28 PM 38.7625 -116.7319 80° East 436 502 37,000  Level Oakland Center
Tue 05:44:29 PM 38.7858 -116.5808 79° East 431 496 37,000  Level Oakland Center
Tue 05:45:30 PM 38.8072 -116.4300 80° East 430 495 37,000  Level Oakland Center
Tue 05:46:31 PM 38.8283 -116.2794 80° East 428 493 37,000  Level Oakland Center
Tue 05:47:33 PM 38.8500 -116.1286 80° East 429 494 37,000  Level Oakland Center
Tue 05:48:39 PM 38.8742 -115.9489 80° East 428 493 37,000  Level Salt Lake Center
Tue 05:49:40 PM 38.8953 -115.7994 80° East 426 490 37,000  Level Salt Lake Center
Tue 05:50:42 PM 38.9158 -115.6497 80° East 426 490 37,000  Level Salt Lake Center
Tue 05:51:44 PM 38.9358 -115.5006 80° East 423 487 37,000  Level Salt Lake Center
Tue 05:52:45 PM 38.9564 -115.3467 80° East 427 491 37,000  Level Salt Lake Center
Tue 05:53:47 PM 38.9778 -115.1953 80° East 431 496 37,000  Level Salt Lake Center
Tue 05:54:48 PM 38.9983 -115.0411 80° East 436 502 37,000  Level Salt Lake Center
Tue 05:55:50 PM 39.0222 -114.8567 80° East 437 503 37,000  Level Salt Lake Center
Tue 05:56:52 PM 39.0422 -114.7022 80° East 439 505 37,000  Level Salt Lake Center
Tue 05:57:53 PM 39.0619 -114.5450 81° East 443 510 37,000  Level Salt Lake Center
Tue 05:58:55 PM 39.0817 -114.3894 81° East 441 507 37,000  Level Salt Lake Center
Tue 05:59:56 PM 39.1019 -114.2303 81° East 447 514 37,000  Level Salt Lake Center
Tue 06:00:58 PM 39.1222 -114.0719 81° East 449 517 37,000  Level Salt Lake Center
Tue 06:02:00 PM 39.1403 -113.9142 82° East 447 514 37,000  Level Salt Lake Center
Tue 06:03:01 PM 39.1597 -113.7575 81° East 445 512 37,000  Level Salt Lake Center
Tue 06:04:03 PM 39.1825 -113.5703 81° East 442 509 37,000  Level Salt Lake Center
Tue 06:05:04 PM 39.2006 -113.4136 81° East 442 509 37,000  Level Salt Lake Center
Tue 06:06:06 PM 39.2183 -113.2564 82° East 444 511 37,000  Level Salt Lake Center
Tue 06:07:07 PM 39.2372 -113.1000 81° East 442 509 37,000  Level Salt Lake Center
Tue 06:08:09 PM 39.2547 -112.9417 82° East 446 513 37,000  Level Salt Lake Center
Tue 06:09:10 PM 39.2719 -112.7825 82° East 448 516 37,000  Level Salt Lake Center
Tue 06:10:12 PM 39.2917 -112.6050 82° East 449 517 37,000  Level Salt Lake Center
Tue 06:11:14 PM 39.3125 -112.4500 80° East 444 511 37,000  Level Salt Lake Center
Tue 06:12:15 PM 39.3433 -112.2975 75° East 441 507 37,000  Level Salt Lake Center
Tue 06:13:16 PM 39.3714 -112.1425 77° East 443 510 37,000  Level Salt Lake Center
Tue 06:14:18 PM 39.4003 -111.9867 76° East 448 516 37,000  Level Salt Lake Center
Tue 06:15:19 PM 39.4286 -111.8306 77° East 449 517 37,000  Level Salt Lake Center
Tue 06:16:21 PM 39.4631 -111.6403 77° East 453 521 37,000  Level Salt Lake Center
Tue 06:17:22 PM 39.4914 -111.4814 77° East 456 525 37,000  Level Salt Lake Center
Tue 06:18:24 PM 39.5203 -111.3233 77° East 455 524 37,000  Level Salt Lake Center
Tue 06:19:25 PM 39.5472 -111.1686 77° East 453 521 37,000  Level Salt Lake Center
Tue 06:20:27 PM 39.5783 -110.9919 77° East 452 520 37,000  Level Salt Lake Center
Tue 06:21:28 PM 39.6050 -110.8403 77° East 452 520 37,000  Level Salt Lake Center
Tue 06:22:30 PM 39.6308 -110.6878 78° East 451 519 37,000  Level Salt Lake Center
Tue 06:23:31 PM 39.6597 -110.5114 78° East 450 518 37,000  Level Salt Lake Center
Tue 06:24:33 PM 39.6861 -110.3603 77° East 449 517 37,000  Level Salt Lake Center
Tue 06:25:34 PM 39.7164 -110.1844 77° East 448 516 37,000  Level Salt Lake Center
Tue 06:26:36 PM 39.7408 -110.0333 78° East 447 514 37,000  Level Salt Lake Center
Tue 06:27:37 PM 39.7647 -109.8822 78° East 445 512 37,000  Level Salt Lake Center
Tue 06:28:38 PM 39.7956 -109.7047 77° East 449 517 37,000  Level Salt Lake Center
Tue 06:29:30 PM 39.8269 -109.5814 72° East 445 512 37,000  Level Denver Center
Tue 06:30:31 PM 39.8711 -109.4089 72° East 447 514 37,000  Level Denver Center
Tue 06:31:33 PM 39.9083 -109.2622 72° East 445 512 37,000  Level Denver Center
Tue 06:32:35 PM 39.9447 -109.1144 72° East 445 512 37,000  Level Denver Center
Tue 06:33:46 PM 39.9944 -108.9203 71° East 444 511 37,000  Level Salt Lake Center
Tue 06:34:38 PM 40.0258 -108.7944 72° East 448 516 37,000  Level Denver Center
Tue 06:35:40 PM 40.0653 -108.6458 71° East 449 517 37,000  Level Denver Center
Tue 06:36:42 PM 40.1278 -108.4822 63° Northeast 449 517 37,000  Level Denver Center
Tue 06:37:44 PM 40.1792 -108.3406 65° Northeast 449 517 37,000  Level Denver Center
Tue 06:38:45 PM 40.2411 -108.1739 64° Northeast 453 521 37,000  Level Denver Center
Tue 06:39:47 PM 40.2933 -108.0319 64° Northeast 452 520 37,000  Level Denver Center
Tue 06:40:49 PM 40.3533 -107.8672 64° Northeast 448 516 37,000  Level Denver Center
Tue 06:41:51 PM 40.4056 -107.7233 64° Northeast 454 522 37,000  Level Denver Center
Tue 06:42:52 PM 40.4569 -107.5811 65° Northeast 452 520 37,000  Level Denver Center
Tue 06:43:54 PM 40.5161 -107.4139 65° Northeast 452 520 37,000  Level Denver Center
Tue 06:44:56 PM 40.5667 -107.2711 65° Northeast 451 519 37,000  Level Denver Center
Tue 06:45:57 PM 40.6267 -107.1061 64° Northeast 451 519 37,000  Level Denver Center
Tue 06:46:59 PM 40.6811 -106.9525 65° Northeast 457 526 37,000  Level Denver Center
Tue 06:48:01 PM 40.7344 -106.8003 65° Northeast 456 525 37,000  Level Denver Center
Tue 06:49:03 PM 40.7922 -106.6344 65° Northeast 460 529 37,000  Level Denver Center
Tue 06:50:04 PM 40.8417 -106.4883 66° East 457 526 37,000  Level Denver Center
Tue 06:51:06 PM 40.9011 -106.3161 65° Northeast 461 531 37,000  Level Denver Center
Tue 06:52:08 PM 40.9519 -106.1692 65° Northeast 460 529 37,000  Level Denver Center
Tue 06:53:09 PM 41.0075 -106.0019 66° East 463 533 37,000  Level Denver Center
Tue 06:54:11 PM 41.0622 -105.8425 65° Northeast 461 531 37,000  Level Denver Center
Tue 06:55:13 PM 41.1114 -105.6972 66° East 453 521 37,000  Level Denver Center
Tue 06:56:26 PM 41.1689 -105.5228 66° East 460 529 37,000  Level Denver Center
Tue 06:57:28 PM 41.2264 -105.3511 66° East 458 527 37,000  Level Denver Center
Tue 06:58:30 PM 41.2678 -105.2278 66° East 459 528 37,000  Level Denver Center
Tue 06:59:32 PM 41.3325 -105.0311 66° East 455 524 37,000  Level Denver Center
Tue 07:00:33 PM 41.3886 -104.8581 67° East 456 525 37,000  Level Denver Center
Tue 07:01:35 PM 41.4358 -104.7142 66° East 447 514 37,000  Level Denver Center
Tue 07:02:37 PM 41.4833 -104.5675 67° East 449 517 37,000  Level Denver Center
Tue 07:03:38 PM 41.5372 -104.3992 67° East 446 513 37,000  Level Denver Center
Tue 07:04:40 PM 41.5833 -104.2547 67° East 446 513 37,000  Level Denver Center
Tue 07:05:42 PM 41.6369 -104.0881 67° East 440 506 37,000  Level Denver Center
Tue 07:06:43 PM 41.6822 -103.9442 67° East 439 505 37,000  Level Denver Center
Tue 07:07:45 PM 41.7342 -103.7781 67° East 437 503 37,000  Level Denver Center
Tue 07:08:46 PM 41.7792 -103.6336 67° East 439 505 37,000  Level Denver Center
Tue 07:09:48 PM 41.8322 -103.4628 67° East 444 511 37,000  Level Denver Center
Tue 07:10:49 PM 41.8778 -103.3156 67° East 446 513 37,000  Level Denver Center
Tue 07:11:51 PM 41.9228 -103.1672 68° East 448 516 37,000  Level Denver Center
Tue 07:12:53 PM 41.9767 -102.9936 67° East 451 519 37,000  Level Denver Center
Tue 07:13:54 PM 42.0217 -102.8431 68° East 453 521 37,000  Level Denver Center
Tue 07:14:56 PM 42.0750 -102.6675 68° East 454 522 37,000  Level Denver Center
Tue 07:15:57 PM 42.1189 -102.5169 69° East 454 522 37,000  Level Denver Center
Tue 07:16:59 PM 42.1719 -102.3411 68° East 454 522 37,000  Level Denver Center
Tue 07:18:01 PM 42.2181 -102.1867 68° East 453 521 37,000  Level Denver Center
Tue 07:19:02 PM 42.2625 -102.0336 69° East 456 525 37,000  Level Denver Center
Tue 07:20:04 PM 42.3133 -101.8608 68° East 455 524 37,000  Level Denver Center
Tue 07:21:05 PM 42.3597 -101.7022 68° East 458 527 37,000  Level Denver Center
Tue 07:22:07 PM 42.4039 -101.5481 69° East 459 528 37,000  Level Denver Center
Tue 07:23:08 PM 42.4550 -101.3683 69° East 458 527 37,000  Level Denver Center
Tue 07:24:10 PM 42.5000 -101.2119 69° East 463 533 37,000  Level Denver Center
Tue 07:25:12 PM 42.5514 -101.0303 69° East 462 532 37,000  Level Denver Center
Tue 07:26:13 PM 42.5956 -100.8744 69° East 462 532 37,000  Level Denver Center
Tue 07:27:15 PM 42.6394 -100.7161 69° East 465 535 37,000  Level Denver Center
Tue 07:28:16 PM 42.6900 -100.5311 70° East 467 537 37,000  Level Denver Center
Tue 07:29:18 PM 42.7339 -100.3719 69° East 469 540 37,000  Level Denver Center
Tue 07:30:19 PM 42.7786 -100.2075 70° East 467 537 37,000  Level Denver Center
Tue 07:31:21 PM 42.8233 -100.0453 69° East 460 529 37,000  Level Denver Center
Tue 07:32:22 PM 42.8764 -99.8483 70° East 462 532 37,000  Level Denver Center
Tue 07:33:05 PM 42.9033 -99.7497 70° East 463 533 37,000  Level Minneapolis Center
Tue 07:34:07 PM 42.9531 -99.5639 70° East 463 533 37,000 194 Level Minneapolis Center
Tue 07:35:09 PM 42.9967 -99.3969 70° East 466 536 37,400 585 Climbing Minneapolis Center
Tue 07:36:10 PM 43.0414 -99.2250 70° East 475 547 38,200 634 Climbing Minneapolis Center
Tue 07:37:12 PM 43.0872 -99.0531 70° East 480 552 38,700 390 Climbing Minneapolis Center
Tue 07:38:13 PM 43.1358 -98.8631 71° East 491 565 39,000 146 Climbing Minneapolis Center
Tue 07:39:15 PM 43.1808 -98.6889 70° East 490 564 39,000  Level Minneapolis Center
Tue 07:40:16 PM 43.2233 -98.5181 71° East 479 551 39,000  Level Minneapolis Center
Tue 07:41:18 PM 43.2589 -98.3825 70° East 475 547 39,000  Level Minneapolis Center
Tue 07:42:20 PM 43.3106 -98.1750 71° East 479 551 39,000  Level Minneapolis Center
Tue 07:43:21 PM 43.3528 -98.0031 71° East 479 551 39,000  Level Minneapolis Center
Tue 07:44:23 PM 43.4039 -97.7956 71° East 479 551 39,000  Level Minneapolis Center
Tue 07:45:24 PM 43.4472 -97.6233 71° East 478 550 39,000  Level Minneapolis Center
Tue 07:46:38 PM 43.4897 -97.4517 71° East 478 550 39,000  Level Minneapolis Center
Tue 07:47:40 PM 43.5400 -97.2406 72° East 483 556 39,000  Level Minneapolis Center
Tue 07:48:41 PM 43.5822 -97.0647 72° East 485 558 39,000  Level Minneapolis Center
Tue 07:49:43 PM 43.6219 -96.8903 72° East 483 556 39,000  Level Minneapolis Center
Tue 07:50:44 PM 43.6394 -96.7194 82° East 462 532 39,000  Level Minneapolis Center
Tue 07:51:46 PM 43.6253 -96.5194 96° East 447 514 39,000  Level Minneapolis Center
Tue 07:52:47 PM 43.6517 -96.3428 78° East 472 543 39,000  Level Minneapolis Center
Tue 07:53:49 PM 43.6756 -96.1639 79° East 477 549 39,000  Level Minneapolis Center
Tue 07:54:50 PM 43.7014 -95.9839 79° East 481 554 39,000  Level Minneapolis Center
Tue 07:55:52 PM 43.7253 -95.8033 80° East 482 555 39,000  Level Minneapolis Center
Tue 07:56:53 PM 43.7392 -95.6222 84° East 478 550 39,000  Level Minneapolis Center
Tue 07:57:55 PM 43.7483 -95.4419 86° East 475 547 39,000  Level Minneapolis Center
Tue 07:58:56 PM 43.7589 -95.2272 86° East 470 541 39,000  Level Minneapolis Center
Tue 07:59:58 PM 43.7697 -95.0431 85° East 480 552 39,000  Level Minneapolis Center
Tue 08:01:00 PM 43.7800 -94.8550 86° East 491 565 39,000  Level Minneapolis Center
Tue 08:02:01 PM 43.7767 -94.6697 91° East 486 559 39,000  Level Minneapolis Center
Tue 08:03:03 PM 43.7689 -94.4836 93° East 486 559 39,000  Level Minneapolis Center
Tue 08:04:04 PM 43.7631 -94.2969 92° East 488 562 39,000  Level Minneapolis Center
Tue 08:05:05 PM 43.7564 -94.0856 92° East 489 563 39,000  Level Minneapolis Center
Tue 08:06:07 PM 43.7475 -93.8994 94° East 489 563 39,000  Level Minneapolis Center
Tue 08:07:08 PM 43.7361 -93.7136 95° East 489 563 39,000  Level Minneapolis Center
Tue 08:08:10 PM 43.7258 -93.5292 94° East 486 559 39,000  Level Minneapolis Center
Tue 08:09:11 PM 43.6694 -93.3706 116° Southeast 464 534 39,000  Level Minneapolis Center
Tue 08:10:12 PM 43.6006 -93.2228 123° Southeast 460 529 39,000  Level Minneapolis Center
Tue 08:11:14 PM 43.5297 -93.0667 122° Southeast 464 534 39,000  Level Minneapolis Center
Tue 08:12:15 PM 43.4606 -92.9197 123° Southeast 461 531 39,000  Level Minneapolis Center
Tue 08:13:17 PM 43.3792 -92.7411 122° Southeast 463 533 39,000 -146 Level Minneapolis Center
Tue 08:14:18 PM 43.3100 -92.5928 123° Southeast 464 534 38,700 -634 Descending Minneapolis Center
Tue 08:15:20 PM 43.2403 -92.4447 123° Southeast 463 533 37,700 -829 Descending Minneapolis Center
Tue 08:16:21 PM 43.1706 -92.2989 123° Southeast 461 531 37,000 -341 Descending Minneapolis Center
Tue 08:17:23 PM 43.1011 -92.1506 123° Southeast 464 534 37,000  Level Minneapolis Center
Tue 08:18:24 PM 43.0314 -92.0050 123° Southeast 461 531 37,000  Level Minneapolis Center
Tue 08:19:25 PM 42.9614 -91.8569 123° Southeast 464 534 37,000 -341 Level Minneapolis Center
Tue 08:20:27 PM 42.8764 -91.6781 123° Southeast 468 539 36,300 -732 Descending Minneapolis Center
Tue 08:21:28 PM 42.8158 -91.5553 124° Southeast 468 539 35,500 -878 Descending Minneapolis Center
Tue 08:22:30 PM 42.7425 -91.4039 123° Southeast 468 539 34,500 -1,000 Descending Minneapolis Center
Tue 08:22:58 PM 42.6997 -91.3144 123° Southeast 471 542 34,000 -933 Descending Chicago Center
Tue 08:24:00 PM 42.6242 -91.1606 124° Southeast 488 562 33,100 -919 Descending Chicago Center
Tue 08:25:02 PM 42.5472 -91.0042 124° Southeast 499 574 32,100 -968 Descending Chicago Center
Tue 08:26:04 PM 42.4519 -90.8878 138° Southeast 466 536 31,100 -968 Descending Chicago Center
Tue 08:27:06 PM 42.3094 -90.8097 158° South 462 532 30,100 -968 Descending Chicago Center
Tue 08:28:08 PM 42.1892 -90.7439 158° South 467 537 29,100 -976 Descending Chicago Center
Tue 08:29:09 PM 42.0708 -90.6786 158° South 462 532 28,100 -1,024 Descending Chicago Center
Tue 08:30:11 PM 41.9544 -90.6178 159° South 452 520 27,000 -1,016 Descending Chicago Center
Tue 08:31:13 PM 41.8397 -90.5544 158° South 448 516 26,000 -1,065 Descending Chicago Center
Tue 08:32:15 PM 41.7086 -90.4778 156° South 449 517 24,800 -1,065 Descending Chicago Center
Tue 08:33:17 PM 41.6256 -90.3475 130° Southeast 455 524 23,800 -871 Descending Chicago Center
Tue 08:34:19 PM 41.5458 -90.2164 129° Southeast 453 521 23,000 -1,161 Descending Chicago Center
Tue 08:35:21 PM 41.4672 -90.0869 129° Southeast 449 517 21,400 -1,887 Descending Chicago Center
Tue 08:36:23 PM 41.3914 -89.9636 129° Southeast 432 497 19,100 -1,742 Descending Chicago Center
Tue 08:37:25 PM 41.3644 -89.8192 104° East 425 489 17,800 -1,113 Descending Chicago Center
Tue 08:38:27 PM 41.3856 -89.6614 80° East 430 495 16,800 -1,065 Descending Chicago Center
Tue 08:39:29 PM 41.4089 -89.4775 80° East 418 481 15,600 -1,065 Descending Chicago Center
Tue 08:40:31 PM 41.4272 -89.3289 81° East 407 468 14,600 -1,122 Descending Chicago Center
Tue 08:41:32 PM 41.4453 -89.1719 81° East 396 456 13,300 -1,805 Descending Chicago Center
Tue 08:42:34 PM 41.4625 -89.0300 81° East 393 452 10,900 -1,548 Descending Chicago Center
Tue 08:43:36 PM 41.4775 -88.9028 81° East 355 409 10,100 -1,210 Descending Chicago Center
Tue 08:44:38 PM 41.4925 -88.7864 80° East 321 369 8,400 -1,403 Descending Chicago Center
Tue 08:45:40 PM 41.5056 -88.6733 81° East 312 359 7,200 -1,258 Descending Chicago Center
Tue 08:46:42 PM 41.5214 -88.5667 79° East 301 346 5,800 -1,065 Descending Chicago Center
Tue 08:47:44 PM 41.5400 -88.4400 79° East 293 337 5,000 -878 Descending Chicago Center
Tue 08:48:45 PM 41.5558 -88.3367 78° East 286 329 4,000 -488 Descending Chicago Center
Tue 08:49:47 PM 41.5706 -88.2361 79° East 280 322 4,000  Level Chicago Center
Tue 08:50:49 PM 41.5864 -88.1344 78° East 278 320 4,000  Level Chicago Center
Tue 08:51:51 PM 41.6006 -88.0319 79° East 278 320 4,000  Level Chicago Center
Tue 08:52:53 PM 41.6344 -87.9425 63° Northeast 278 320 4,000 -387 Level Chicago Center
Tue 08:53:55 PM 41.6858 -87.8769 44° Northeast 265 305 3,200 -1,038 Descending Chicago Center
Tue 08:54:37 PM 41.7167 -87.8333 47° Northeast 200 230 2,200 -1,059 Descending Chicago TRACON
Tue 08:55:37 PM 41.7500 -87.8000 37° Northeast 137 158 1,400 -800 Descending Chicago TRACON

Login

Don't have an account? Register now (free) for customized features, flight alerts, and more!